sensor_id;sensor_type;location;lat;lon;timestamp;pressure;altitude;pressure_sealevel;temperature;humidity
11672;BME280;5892;43.412;24.612;2024-03-07T00:00:17;100130.59;;;6.14;72.37
11672;BME280;5892;43.412;24.612;2024-03-07T00:02:45;100123.22;;;6.08;71.63
11672;BME280;5892;43.412;24.612;2024-03-07T00:05:19;100117.69;;;6.14;73.43
11672;BME280;5892;43.412;24.612;2024-03-07T00:07:45;100120.53;;;6.24;71.57
11672;BME280;5892;43.412;24.612;2024-03-07T00:10:10;100104.72;;;6.01;72.73
11672;BME280;5892;43.412;24.612;2024-03-07T00:12:37;100123.22;;;6.08;73.03
11672;BME280;5892;43.412;24.612;2024-03-07T00:15:05;100116.41;;;6.07;73.49
11672;BME280;5892;43.412;24.612;2024-03-07T00:17:31;100113.00;;;6.07;72.64
11672;BME280;5892;43.412;24.612;2024-03-07T00:19:56;100106.06;;;6.07;72.15
11672;BME280;5892;43.412;24.612;2024-03-07T00:22:23;100110.13;;;5.97;72.45
11672;BME280;5892;43.412;24.612;2024-03-07T00:24:49;100104.06;;;5.98;71.49
11672;BME280;5892;43.412;24.612;2024-03-07T00:27:14;100095.47;;;5.97;72.28
11672;BME280;5892;43.412;24.612;2024-03-07T00:29:40;100105.63;;;6.00;71.86
11672;BME280;5892;43.412;24.612;2024-03-07T00:32:06;100099.72;;;5.98;72.03
11672;BME280;5892;43.412;24.612;2024-03-07T00:34:33;100103.22;;;5.97;72.16
11672;BME280;5892;43.412;24.612;2024-03-07T00:36:59;100107.06;;;5.90;71.76
11672;BME280;5892;43.412;24.612;2024-03-07T00:39:25;100093.16;;;5.93;72.17
11672;BME280;5892;43.412;24.612;2024-03-07T00:41:51;100098.31;;;5.93;72.11
11672;BME280;5892;43.412;24.612;2024-03-07T00:44:18;100096.31;;;5.98;72.11
11672;BME280;5892;43.412;24.612;2024-03-07T00:46:43;100093.06;;;5.94;71.89
11672;BME280;5892;43.412;24.612;2024-03-07T00:49:09;100086.41;;;5.90;72.08
11672;BME280;5892;43.412;24.612;2024-03-07T00:51:34;100083.75;;;5.92;70.84
11672;BME280;5892;43.412;24.612;2024-03-07T00:54:00;100087.91;;;5.94;70.80
11672;BME280;5892;43.412;24.612;2024-03-07T00:56:26;100094.91;;;5.92;71.54
11672;BME280;5892;43.412;24.612;2024-03-07T00:58:54;100092.63;;;6.02;71.32
11672;BME280;5892;43.412;24.612;2024-03-07T01:01:22;100094.47;;;6.00;71.58
11672;BME280;5892;43.412;24.612;2024-03-07T01:03:48;100081.84;;;6.10;71.64
11672;BME280;5892;43.412;24.612;2024-03-07T01:06:13;100076.47;;;6.13;70.36
11672;BME280;5892;43.412;24.612;2024-03-07T01:08:40;100079.91;;;6.13;70.15
11672;BME280;5892;43.412;24.612;2024-03-07T01:11:05;100066.06;;;6.14;71.15
11672;BME280;5892;43.412;24.612;2024-03-07T01:13:43;100073.91;;;6.13;71.51
11672;BME280;5892;43.412;24.612;2024-03-07T01:16:09;100075.50;;;6.01;71.10
11672;BME280;5892;43.412;24.612;2024-03-07T01:18:35;100072.72;;;6.04;71.06
11672;BME280;5892;43.412;24.612;2024-03-07T01:21:02;100076.88;;;5.92;71.23
11672;BME280;5892;43.412;24.612;2024-03-07T01:23:30;100066.28;;;5.97;70.81
11672;BME280;5892;43.412;24.612;2024-03-07T01:25:57;100072.91;;;6.01;70.33
11672;BME280;5892;43.412;24.612;2024-03-07T01:28:23;100061.03;;;5.98;69.74
11672;BME280;5892;43.412;24.612;2024-03-07T01:30:51;100072.06;;;6.00;70.09
11672;BME280;5892;43.412;24.612;2024-03-07T01:33:20;100070.22;;;6.02;69.50
11672;BME280;5892;43.412;24.612;2024-03-07T01:35:46;100068.03;;;5.96;70.74
11672;BME280;5892;43.412;24.612;2024-03-07T01:38:13;100065.28;;;5.99;69.57
11672;BME280;5892;43.412;24.612;2024-03-07T01:40:42;100070.22;;;5.88;70.30
11672;BME280;5892;43.412;24.612;2024-03-07T01:43:08;100069.78;;;5.96;nan
11672;BME280;5892;43.412;24.612;2024-03-07T01:45:35;100065.16;;;5.86;70.74
11672;BME280;5892;43.412;24.612;2024-03-07T01:48:05;100056.69;;;5.84;70.25
11672;BME280;5892;43.412;24.612;2024-03-07T01:50:34;100063.03;;;5.79;70.03
11672;BME280;5892;43.412;24.612;2024-03-07T01:53:03;100051.59;;;5.83;70.18
11672;BME280;5892;43.412;24.612;2024-03-07T01:55:29;100064.88;;;5.77;70.45
11672;BME280;5892;43.412;24.612;2024-03-07T01:57:59;100062.75;;;5.69;70.37
11672;BME280;5892;43.412;24.612;2024-03-07T02:00:25;100050.91;;;5.66;70.72
11672;BME280;5892;43.412;24.612;2024-03-07T02:02:54;100055.03;;;5.69;70.58
11672;BME280;5892;43.412;24.612;2024-03-07T02:05:20;100059.34;;;5.69;70.71
11672;BME280;5892;43.412;24.612;2024-03-07T02:07:47;100054.94;;;5.71;70.86
11672;BME280;5892;43.412;24.612;2024-03-07T02:10:12;100050.91;;;5.66;71.18
11672;BME280;5892;43.412;24.612;2024-03-07T02:12:38;100050.25;;;5.77;69.66
11672;BME280;5892;43.412;24.612;2024-03-07T02:15:04;100056.44;;;5.75;70.42
11672;BME280;5892;43.412;24.612;2024-03-07T02:17:29;100057.25;;;5.75;69.80
11672;BME280;5892;43.412;24.612;2024-03-07T02:19:55;100051.16;;;5.76;70.11
11672;BME280;5892;43.412;24.612;2024-03-07T02:22:20;100055.75;;;5.85;69.47
11672;BME280;5892;43.412;24.612;2024-03-07T02:24:46;100052.88;;;5.90;69.64
11672;BME280;5892;43.412;24.612;2024-03-07T02:27:12;100052.47;;;5.83;69.95
11672;BME280;5892;43.412;24.612;2024-03-07T02:29:40;100056.09;;;5.94;69.36
11672;BME280;5892;43.412;24.612;2024-03-07T02:32:06;100058.03;;;5.90;69.36
11672;BME280;5892;43.412;24.612;2024-03-07T02:34:31;100066.09;;;5.85;69.38
11672;BME280;5892;43.412;24.612;2024-03-07T02:36:57;100062.38;;;5.90;69.32
11672;BME280;5892;43.412;24.612;2024-03-07T02:39:22;100066.41;;;5.94;69.13
11672;BME280;5892;43.412;24.612;2024-03-07T02:41:48;100070.13;;;5.90;69.44
11672;BME280;5892;43.412;24.612;2024-03-07T02:44:14;100069.56;;;5.84;69.41
11672;BME280;5892;43.412;24.612;2024-03-07T02:46:40;100065.88;;;5.89;69.21
11672;BME280;5892;43.412;24.612;2024-03-07T02:49:05;100070.59;;;5.82;69.26
11672;BME280;5892;43.412;24.612;2024-03-07T02:51:31;100065.16;;;5.86;68.57
11672;BME280;5892;43.412;24.612;2024-03-07T02:53:57;100067.53;;;5.90;68.91
11672;BME280;5892;43.412;24.612;2024-03-07T02:56:23;100079.53;;;5.91;68.71
11672;BME280;5892;43.412;24.612;2024-03-07T02:58:48;100071.16;;;6.01;68.04
11672;BME280;5892;43.412;24.612;2024-03-07T03:01:14;100074.00;;;5.97;68.39
11672;BME280;5892;43.412;24.612;2024-03-07T03:03:40;100070.63;;;5.96;69.07
11672;BME280;5892;43.412;24.612;2024-03-07T03:06:09;100065.28;;;5.99;69.05
11672;BME280;5892;43.412;24.612;2024-03-07T03:08:35;100064.41;;;5.99;68.31
11672;BME280;5892;43.412;24.612;2024-03-07T03:11:01;100067.38;;;6.07;67.89
11672;BME280;5892;43.412;24.612;2024-03-07T03:13:26;100076.13;;;6.04;67.61
11672;BME280;5892;43.412;24.612;2024-03-07T03:15:57;100067.94;;;5.98;67.40
11672;BME280;5892;43.412;24.612;2024-03-07T03:18:24;100054.72;;;6.02;67.37
11672;BME280;5892;43.412;24.612;2024-03-07T03:20:50;100065.06;;;6.02;67.42
11672;BME280;5892;43.412;24.612;2024-03-07T03:23:18;100075.28;;;6.04;65.85
11672;BME280;5892;43.412;24.612;2024-03-07T03:25:48;100068.81;;;6.11;66.56
11672;BME280;5892;43.412;24.612;2024-03-07T03:28:14;100067.09;;;6.12;66.43
11672;BME280;5892;43.412;24.612;2024-03-07T03:30:41;100069.66;;;6.12;66.32
11672;BME280;5892;43.412;24.612;2024-03-07T03:33:08;100071.94;;;6.16;65.93
11672;BME280;5892;43.412;24.612;2024-03-07T03:35:35;100073.97;;;6.26;65.90
11672;BME280;5892;43.412;24.612;2024-03-07T03:38:00;100071.41;;;6.26;65.70
11672;BME280;5892;43.412;24.612;2024-03-07T03:40:26;100078.84;;;6.30;65.95
11672;BME280;5892;43.412;24.612;2024-03-07T03:42:52;100081.72;;;6.26;66.46
11672;BME280;5892;43.412;24.612;2024-03-07T03:45:17;100084.03;;;6.16;65.59
11672;BME280;5892;43.412;24.612;2024-03-07T03:47:44;100083.78;;;6.06;67.14
11672;BME280;5892;43.412;24.612;2024-03-07T03:50:14;100080.00;;;6.12;67.15
11672;BME280;5892;43.412;24.612;2024-03-07T03:52:40;100083.97;;;6.03;68.19
11672;BME280;5892;43.412;24.612;2024-03-07T03:55:06;100078.63;;;6.06;67.70
11672;BME280;5892;43.412;24.612;2024-03-07T03:57:33;100088.84;;;5.79;68.71
11672;BME280;5892;43.412;24.612;2024-03-07T03:59:59;100086.72;;;5.85;69.71
11672;BME280;5892;43.412;24.612;2024-03-07T04:02:25;100085.53;;;5.77;70.31
11672;BME280;5892;43.412;24.612;2024-03-07T04:04:51;100089.94;;;5.60;70.85
11672;BME280;5892;43.412;24.612;2024-03-07T04:07:18;100099.78;;;5.54;70.25
11672;BME280;5892;43.412;24.612;2024-03-07T04:09:44;100097.97;;;5.56;71.69
11672;BME280;5892;43.412;24.612;2024-03-07T04:12:10;100099.16;;;5.64;71.17
11672;BME280;5892;43.412;24.612;2024-03-07T04:14:39;100091.59;;;5.61;70.84
11672;BME280;5892;43.412;24.612;2024-03-07T04:17:06;100096.47;;;5.52;70.70
11672;BME280;5892;43.412;24.612;2024-03-07T04:19:41;100093.97;;;5.50;71.03
11672;BME280;5892;43.412;24.612;2024-03-07T04:22:08;100096.09;;;5.43;72.38
11672;BME280;5892;43.412;24.612;2024-03-07T04:24:35;100105.31;;;5.47;72.01
11672;BME280;5892;43.412;24.612;2024-03-07T04:27:01;100101.69;;;5.50;72.54
11672;BME280;5892;43.412;24.612;2024-03-07T04:29:33;100103.00;;;5.57;71.81
11672;BME280;5892;43.412;24.612;2024-03-07T04:32:01;100111.41;;;5.61;71.32
11672;BME280;5892;43.412;24.612;2024-03-07T04:34:27;100116.91;;;5.69;71.89
11672;BME280;5892;43.412;24.612;2024-03-07T04:37:01;100114.00;;;5.61;70.72
11672;BME280;5892;43.412;24.612;2024-03-07T04:39:27;100106.44;;;5.58;71.09
11672;BME280;5892;43.412;24.612;2024-03-07T04:42:04;100110.94;;;5.54;72.10
11672;BME280;5892;43.412;24.612;2024-03-07T04:44:32;100112.22;;;5.47;71.64
11672;BME280;5892;43.412;24.612;2024-03-07T04:46:58;100101.22;;;5.29;73.34
11672;BME280;5892;43.412;24.612;2024-03-07T04:49:26;100108.31;;;5.40;71.95
11672;BME280;5892;43.412;24.612;2024-03-07T04:51:54;100112.00;;;5.50;71.47
11672;BME280;5892;43.412;24.612;2024-03-07T04:54:21;100120.03;;;5.45;72.48
11672;BME280;5892;43.412;24.612;2024-03-07T04:56:49;100114.97;;;5.44;71.79
11672;BME280;5892;43.412;24.612;2024-03-07T04:59:15;100109.63;;;5.47;71.03
11672;BME280;5892;43.412;24.612;2024-03-07T05:01:42;100110.38;;;5.35;70.42
11672;BME280;5892;43.412;24.612;2024-03-07T05:04:07;100123.09;;;5.52;70.95
11672;BME280;5892;43.412;24.612;2024-03-07T05:06:33;100115.63;;;5.47;70.71
11672;BME280;5892;43.412;24.612;2024-03-07T05:09:09;100131.56;;;5.54;70.98
11672;BME280;5892;43.412;24.612;2024-03-07T05:11:36;100136.91;;;5.51;70.65
11672;BME280;5892;43.412;24.612;2024-03-07T05:14:21;100129.88;;;5.53;70.72
11672;BME280;5892;43.412;24.612;2024-03-07T05:16:47;100133.91;;;5.43;71.16
11672;BME280;5892;43.412;24.612;2024-03-07T05:19:33;100138.16;;;5.44;70.65
11672;BME280;5892;43.412;24.612;2024-03-07T05:21:59;100150.03;;;5.46;72.11
11672;BME280;5892;43.412;24.612;2024-03-07T05:24:25;100153.91;;;5.39;70.79
11672;BME280;5892;43.412;24.612;2024-03-07T05:26:50;100147.38;;;5.48;71.59
11672;BME280;5892;43.412;24.612;2024-03-07T05:29:18;100153.91;;;5.54;71.82
11672;BME280;5892;43.412;24.612;2024-03-07T05:31:44;100150.25;;;5.58;71.03
11672;BME280;5892;43.412;24.612;2024-03-07T05:34:14;100144.53;;;5.53;72.62
11672;BME280;5892;43.412;24.612;2024-03-07T05:36:41;100151.81;;;5.46;72.55
11672;BME280;5892;43.412;24.612;2024-03-07T05:39:12;100154.03;;;5.52;72.03
11672;BME280;5892;43.412;24.612;2024-03-07T05:41:38;100156.25;;;5.58;72.83
11672;BME280;5892;43.412;24.612;2024-03-07T05:44:04;100149.31;;;5.59;72.96
11672;BME280;5892;43.412;24.612;2024-03-07T05:46:40;100161.69;;;5.68;73.16
11672;BME280;5892;43.412;24.612;2024-03-07T05:49:13;100161.84;;;5.51;72.20
11672;BME280;5892;43.412;24.612;2024-03-07T05:51:39;100156.00;;;5.33;72.67
11672;BME280;5892;43.412;24.612;2024-03-07T05:54:07;100156.38;;;5.41;72.93
11672;BME280;5892;43.412;24.612;2024-03-07T05:56:33;100165.16;;;5.53;72.88
11672;BME280;5892;43.412;24.612;2024-03-07T05:59:03;100164.78;;;5.44;73.05
11672;BME280;5892;43.412;24.612;2024-03-07T06:01:38;100166.00;;;5.53;73.87
11672;BME280;5892;43.412;24.612;2024-03-07T06:04:05;100166.63;;;5.57;73.40
11672;BME280;5892;43.412;24.612;2024-03-07T06:06:34;100161.66;;;5.54;73.02
11672;BME280;5892;43.412;24.612;2024-03-07T06:09:03;100162.28;;;5.43;73.28
11672;BME280;5892;43.412;24.612;2024-03-07T06:11:38;100171.53;;;5.47;73.77
11672;BME280;5892;43.412;24.612;2024-03-07T06:14:05;100165.72;;;5.43;75.43
11672;BME280;5892;43.412;24.612;2024-03-07T06:16:32;100177.31;;;5.51;76.22
11672;BME280;5892;43.412;24.612;2024-03-07T06:19:00;100185.22;;;5.47;77.08
11672;BME280;5892;43.412;24.612;2024-03-07T06:21:27;100181.72;;;5.48;76.84
11672;BME280;5892;43.412;24.612;2024-03-07T06:23:56;100180.00;;;5.63;76.13
11672;BME280;5892;43.412;24.612;2024-03-07T06:26:35;100186.06;;;5.62;76.78
11672;BME280;5892;43.412;24.612;2024-03-07T06:29:25;100189.00;;;5.42;77.96
11672;BME280;5892;43.412;24.612;2024-03-07T06:31:53;100182.16;;;5.41;77.44
11672;BME280;5892;43.412;24.612;2024-03-07T06:34:19;100183.75;;;5.43;77.11
11672;BME280;5892;43.412;24.612;2024-03-07T06:36:45;100187.44;;;5.54;75.84
11672;BME280;5892;43.412;24.612;2024-03-07T06:39:10;100175.47;;;5.53;76.76
11672;BME280;5892;43.412;24.612;2024-03-07T06:41:38;100184.53;;;5.60;76.65
11672;BME280;5892;43.412;24.612;2024-03-07T06:44:04;100183.25;;;5.67;76.37
11672;BME280;5892;43.412;24.612;2024-03-07T06:46:30;100177.59;;;5.60;76.87
11672;BME280;5892;43.412;24.612;2024-03-07T06:48:59;100184.25;;;5.64;77.78
11672;BME280;5892;43.412;24.612;2024-03-07T06:51:25;100179.94;;;5.65;77.12
11672;BME280;5892;43.412;24.612;2024-03-07T06:53:50;100181.88;;;5.76;77.80
11672;BME280;5892;43.412;24.612;2024-03-07T06:56:16;100181.44;;;5.83;77.21
11672;BME280;5892;43.412;24.612;2024-03-07T06:58:42;100178.84;;;5.83;76.83
11672;BME280;5892;43.412;24.612;2024-03-07T07:01:08;100182.16;;;5.85;75.87
11672;BME280;5892;43.412;24.612;2024-03-07T07:03:38;100178.09;;;5.67;76.52
11672;BME280;5892;43.412;24.612;2024-03-07T07:06:04;100188.56;;;5.64;76.71
11672;BME280;5892;43.412;24.612;2024-03-07T07:08:32;100191.38;;;5.75;77.21
11672;BME280;5892;43.412;24.612;2024-03-07T07:10:57;100185.19;;;5.78;75.95
11672;BME280;5892;43.412;24.612;2024-03-07T07:13:23;100183.31;;;5.51;75.82
11672;BME280;5892;43.412;24.612;2024-03-07T07:15:49;100182.13;;;5.57;76.51
11672;BME280;5892;43.412;24.612;2024-03-07T07:18:15;100175.22;;;5.27;76.61
11672;BME280;5892;43.412;24.612;2024-03-07T07:20:40;100180.44;;;4.95;79.26
11672;BME280;5892;43.412;24.612;2024-03-07T07:23:06;100179.50;;;4.96;79.12
11672;BME280;5892;43.412;24.612;2024-03-07T07:25:32;100172.75;;;5.09;79.18
11672;BME280;5892;43.412;24.612;2024-03-07T07:27:57;100175.59;;;5.21;78.25
11672;BME280;5892;43.412;24.612;2024-03-07T07:30:24;100170.88;;;5.27;77.65
11672;BME280;5892;43.412;24.612;2024-03-07T07:32:51;100179.88;;;5.20;77.66
11672;BME280;5892;43.412;24.612;2024-03-07T07:35:17;100184.31;;;5.18;77.08
11672;BME280;5892;43.412;24.612;2024-03-07T07:37:47;100174.81;;;5.19;76.63
11672;BME280;5892;43.412;24.612;2024-03-07T07:40:16;100184.06;;;5.23;79.11
11672;BME280;5892;43.412;24.612;2024-03-07T07:42:45;100186.72;;;5.21;78.86
11672;BME280;5892;43.412;24.612;2024-03-07T07:45:14;100189.03;;;5.10;79.15
11672;BME280;5892;43.412;24.612;2024-03-07T07:47:48;100200.53;;;5.04;79.46
11672;BME280;5892;43.412;24.612;2024-03-07T07:50:16;100201.88;;;4.96;79.43
11672;BME280;5892;43.412;24.612;2024-03-07T07:52:45;100206.34;;;5.08;79.91
11672;BME280;5892;43.412;24.612;2024-03-07T07:55:16;100191.94;;;5.20;79.69
11672;BME280;5892;43.412;24.612;2024-03-07T07:57:43;100196.78;;;5.10;78.90
11672;BME280;5892;43.412;24.612;2024-03-07T08:00:19;100197.88;;;5.06;79.44
11672;BME280;5892;43.412;24.612;2024-03-07T08:05:20;100187.50;;;5.07;80.85
11672;BME280;5892;43.412;24.612;2024-03-07T08:07:51;100198.50;;;5.25;80.90
11672;BME280;5892;43.412;24.612;2024-03-07T08:10:22;100194.28;;;5.08;78.85
11672;BME280;5892;43.412;24.612;2024-03-07T08:12:49;100180.59;;;4.92;79.87
11672;BME280;5892;43.412;24.612;2024-03-07T08:15:16;100186.09;;;5.02;79.84
11672;BME280;5892;43.412;24.612;2024-03-07T08:17:46;100191.53;;;5.12;81.09
11672;BME280;5892;43.412;24.612;2024-03-07T08:20:16;100203.69;;;5.09;80.63
11672;BME280;5892;43.412;24.612;2024-03-07T08:22:44;100194.56;;;5.04;81.03
11672;BME280;5892;43.412;24.612;2024-03-07T08:25:14;100190.22;;;5.04;80.58
11672;BME280;5892;43.412;24.612;2024-03-07T08:27:41;100193.31;;;4.95;81.67
11672;BME280;5892;43.412;24.612;2024-03-07T08:30:09;100175.78;;;5.02;81.66
11672;BME280;5892;43.412;24.612;2024-03-07T08:32:45;100190.81;;;4.94;82.26
11672;BME280;5892;43.412;24.612;2024-03-07T08:35:14;100190.81;;;4.94;81.55
11672;BME280;5892;43.412;24.612;2024-03-07T08:37:44;100198.63;;;4.92;82.46
11672;BME280;5892;43.412;24.612;2024-03-07T08:40:11;100192.38;;;4.96;82.80
11672;BME280;5892;43.412;24.612;2024-03-07T08:42:47;100193.88;;;5.16;82.85
11672;BME280;5892;43.412;24.612;2024-03-07T08:45:16;100182.78;;;5.30;81.42
11672;BME280;5892;43.412;24.612;2024-03-07T08:47:49;100191.00;;;5.37;81.55
11672;BME280;5892;43.412;24.612;2024-03-07T08:50:16;100193.88;;;5.46;81.87
11672;BME280;5892;43.412;24.612;2024-03-07T08:52:44;100189.38;;;5.50;80.31
11672;BME280;5892;43.412;24.612;2024-03-07T08:55:12;100199.16;;;5.59;79.78
11672;BME280;5892;43.412;24.612;2024-03-07T08:57:40;100198.16;;;5.62;80.40
11672;BME280;5892;43.412;24.612;2024-03-07T09:00:07;100200.19;;;5.71;79.40
11672;BME280;5892;43.412;24.612;2024-03-07T09:02:39;100205.75;;;5.79;79.98
11672;BME280;5892;43.412;24.612;2024-03-07T09:05:05;100205.00;;;5.92;80.64
11672;BME280;5892;43.412;24.612;2024-03-07T09:07:32;100209.78;;;5.99;79.73
11672;BME280;5892;43.412;24.612;2024-03-07T09:10:00;100204.69;;;5.98;79.87
11672;BME280;5892;43.412;24.612;2024-03-07T09:12:27;100217.00;;;5.93;79.62
11672;BME280;5892;43.412;24.612;2024-03-07T09:14:53;100214.84;;;6.01;80.06
11672;BME280;5892;43.412;24.612;2024-03-07T09:17:18;100223.59;;;5.98;79.39
11672;BME280;5892;43.412;24.612;2024-03-07T09:19:44;100219.25;;;5.99;79.89
11672;BME280;5892;43.412;24.612;2024-03-07T09:22:10;100216.22;;;6.35;79.40
11672;BME280;5892;43.412;24.612;2024-03-07T09:24:35;100218.91;;;6.48;79.04
11672;BME280;5892;43.412;24.612;2024-03-07T09:27:03;100231.06;;;6.17;78.92
11672;BME280;5892;43.412;24.612;2024-03-07T09:29:28;100232.78;;;6.02;79.10
11672;BME280;5892;43.412;24.612;2024-03-07T09:31:54;100229.50;;;6.29;80.44
11672;BME280;5892;43.412;24.612;2024-03-07T09:34:20;100228.66;;;6.29;79.29
11672;BME280;5892;43.412;24.612;2024-03-07T09:36:49;100223.41;;;6.16;79.51
11672;BME280;5892;43.412;24.612;2024-03-07T09:39:15;100217.13;;;6.20;79.85
11672;BME280;5892;43.412;24.612;2024-03-07T09:41:41;100223.59;;;6.13;79.99
11672;BME280;5892;43.412;24.612;2024-03-07T09:44:14;100224.97;;;6.04;80.63
11672;BME280;5892;43.412;24.612;2024-03-07T09:46:48;100234.72;;;5.99;82.27
11672;BME280;5892;43.412;24.612;2024-03-07T09:49:14;100233.81;;;6.00;81.74
11672;BME280;5892;43.412;24.612;2024-03-07T09:51:40;100235.50;;;6.01;81.67
11672;BME280;5892;43.412;24.612;2024-03-07T09:54:08;100244.69;;;6.05;81.15
11672;BME280;5892;43.412;24.612;2024-03-07T09:56:35;100231.22;;;6.00;81.58
11672;BME280;5892;43.412;24.612;2024-03-07T09:59:03;100229.09;;;5.92;81.17
11672;BME280;5892;43.412;24.612;2024-03-07T10:01:33;100228.53;;;5.87;81.99
11672;BME280;5892;43.412;24.612;2024-03-07T10:04:00;100231.88;;;6.18;81.83
11672;BME280;5892;43.412;24.612;2024-03-07T10:06:37;100224.06;;;6.19;81.03
11672;BME280;5892;43.412;24.612;2024-03-07T10:09:04;100216.59;;;6.15;80.99
11672;BME280;5892;43.412;24.612;2024-03-07T10:11:30;100224.44;;;6.13;81.07
11672;BME280;5892;43.412;24.612;2024-03-07T10:13:55;100230.97;;;6.19;81.42
11672;BME280;5892;43.412;24.612;2024-03-07T10:16:22;100232.44;;;6.09;81.52
11672;BME280;5892;43.412;24.612;2024-03-07T10:18:48;100224.78;;;6.21;80.69
11672;BME280;5892;43.412;24.612;2024-03-07T10:21:21;100235.56;;;6.14;81.17
11672;BME280;5892;43.412;24.612;2024-03-07T10:24:04;100217.59;;;6.12;81.41
11672;BME280;5892;43.412;24.612;2024-03-07T10:26:37;100226.63;;;6.19;81.33
11672;BME280;5892;43.412;24.612;2024-03-07T10:29:04;100227.38;;;6.21;81.05
11672;BME280;5892;43.412;24.612;2024-03-07T10:31:31;100225.63;;;6.22;81.10
11672;BME280;5892;43.412;24.612;2024-03-07T10:34:03;100226.09;;;6.43;80.84
11672;BME280;5892;43.412;24.612;2024-03-07T10:36:33;100232.66;;;6.34;81.85
11672;BME280;5892;43.412;24.612;2024-03-07T10:39:02;100240.09;;;6.39;81.54
11672;BME280;5892;43.412;24.612;2024-03-07T10:41:45;100227.47;;;6.34;80.62
11672;BME280;5892;43.412;24.612;2024-03-07T10:44:20;100235.13;;;6.36;80.49
11672;BME280;5892;43.412;24.612;2024-03-07T10:46:54;100239.84;;;6.29;81.33
11672;BME280;5892;43.412;24.612;2024-03-07T10:49:20;100244.25;;;6.27;81.02
11672;BME280;5892;43.412;24.612;2024-03-07T10:52:00;100239.06;;;6.13;81.80
11672;BME280;5892;43.412;24.612;2024-03-07T10:59:56;100235.31;;;6.18;83.09
11672;BME280;5892;43.412;24.612;2024-03-07T11:04:52;100232.91;;;6.30;83.48
11672;BME280;5892;43.412;24.612;2024-03-07T11:07:20;100231.44;;;6.26;83.58
11672;BME280;5892;43.412;24.612;2024-03-07T11:09:49;100228.66;;;6.29;83.07
11672;BME280;5892;43.412;24.612;2024-03-07T11:12:19;100230.97;;;6.19;83.84
11672;BME280;5892;43.412;24.612;2024-03-07T11:14:46;100226.00;;;6.16;83.95
11672;BME280;5892;43.412;24.612;2024-03-07T11:17:13;100220.00;;;6.30;84.50
11672;BME280;5892;43.412;24.612;2024-03-07T11:19:38;100222.28;;;6.20;84.28
11672;BME280;5892;43.412;24.612;2024-03-07T11:22:04;100228.28;;;6.35;85.13
11672;BME280;5892;43.412;24.612;2024-03-07T11:24:43;100216.84;;;6.39;84.93
11672;BME280;5892;43.412;24.612;2024-03-07T11:27:10;100227.00;;;6.42;84.76
11672;BME280;5892;43.412;24.612;2024-03-07T11:29:49;100224.59;;;6.25;85.02
11672;BME280;5892;43.412;24.612;2024-03-07T11:32:18;100222.66;;;6.28;85.52
11672;BME280;5892;43.412;24.612;2024-03-07T11:34:47;100226.44;;;6.37;85.35
11672;BME280;5892;43.412;24.612;2024-03-07T11:39:48;100229.84;;;6.37;86.17
11672;BME280;5892;43.412;24.612;2024-03-07T11:42:28;100215.66;;;6.45;86.16
11672;BME280;5892;43.412;24.612;2024-03-07T11:44:57;100217.13;;;6.49;86.52
11672;BME280;5892;43.412;24.612;2024-03-07T11:47:34;100221.00;;;6.56;86.15
11672;BME280;5892;43.412;24.612;2024-03-07T11:50:01;100222.00;;;6.68;85.86
11672;BME280;5892;43.412;24.612;2024-03-07T11:52:27;100223.81;;;6.80;85.50
11672;BME280;5892;43.412;24.612;2024-03-07T11:54:53;100207.72;;;6.89;85.08
11672;BME280;5892;43.412;24.612;2024-03-07T11:57:19;100212.16;;;6.87;85.74
11672;BME280;5892;43.412;24.612;2024-03-07T11:59:47;100215.28;;;6.92;85.63
11672;BME280;5892;43.412;24.612;2024-03-07T12:02:17;100206.72;;;6.92;85.55
11672;BME280;5892;43.412;24.612;2024-03-07T12:04:46;100202.47;;;6.91;85.90
11672;BME280;5892;43.412;24.612;2024-03-07T12:07:12;100199.78;;;6.92;85.48
11672;BME280;5892;43.412;24.612;2024-03-07T12:09:38;100206.22;;;6.99;85.87
11672;BME280;5892;43.412;24.612;2024-03-07T12:12:07;100199.81;;;7.05;85.74
11672;BME280;5892;43.412;24.612;2024-03-07T12:14:34;100205.97;;;7.17;83.39
11672;BME280;5892;43.412;24.612;2024-03-07T12:17:03;100201.66;;;7.17;83.31
11672;BME280;5892;43.412;24.612;2024-03-07T12:19:32;100194.56;;;7.34;81.98
11672;BME280;5892;43.412;24.612;2024-03-07T12:22:08;100203.84;;;7.36;81.46
11672;BME280;5892;43.412;24.612;2024-03-07T12:24:42;100195.69;;;7.30;80.90
11672;BME280;5892;43.412;24.612;2024-03-07T12:27:12;100193.94;;;7.43;80.72
11672;BME280;5892;43.412;24.612;2024-03-07T12:29:42;100192.50;;;7.52;81.43
11672;BME280;5892;43.412;24.612;2024-03-07T12:32:09;100193.56;;;7.49;80.67
11672;BME280;5892;43.412;24.612;2024-03-07T12:34:40;100190.88;;;7.64;82.02
11672;BME280;5892;43.412;24.612;2024-03-07T12:37:12;100189.84;;;7.79;80.74
11672;BME280;5892;43.412;24.612;2024-03-07T12:39:44;100179.91;;;7.60;80.69
11672;BME280;5892;43.412;24.612;2024-03-07T12:42:15;100192.84;;;7.73;80.09
11672;BME280;5892;43.412;24.612;2024-03-07T12:44:45;100183.34;;;7.86;80.06
11672;BME280;5892;43.412;24.612;2024-03-07T12:47:17;100190.69;;;8.05;79.40
11672;BME280;5892;43.412;24.612;2024-03-07T12:49:44;100190.25;;;8.24;79.20
11672;BME280;5892;43.412;24.612;2024-03-07T12:52:10;100183.00;;;8.29;78.97
11672;BME280;5892;43.412;24.612;2024-03-07T12:54:41;100190.06;;;8.02;79.41
11672;BME280;5892;43.412;24.612;2024-03-07T12:57:08;100196.88;;;8.28;79.40
11672;BME280;5892;43.412;24.612;2024-03-07T12:59:43;100190.03;;;8.40;77.75
11672;BME280;5892;43.412;24.612;2024-03-07T13:02:10;100183.63;;;8.33;78.16
11672;BME280;5892;43.412;24.612;2024-03-07T13:04:37;100186.44;;;8.04;77.76
11672;BME280;5892;43.412;24.612;2024-03-07T13:07:07;100183.91;;;8.28;77.96
11672;BME280;5892;43.412;24.612;2024-03-07T13:09:33;100190.34;;;8.23;77.75
11672;BME280;5892;43.412;24.612;2024-03-07T13:11:59;100191.91;;;8.25;77.81
11672;BME280;5892;43.412;24.612;2024-03-07T13:14:29;100172.16;;;8.61;78.69
11672;BME280;5892;43.412;24.612;2024-03-07T13:17:04;100175.81;;;8.59;77.22